createdAt,value
2019-06-15T00:01:13.179Z,21.40
2019-06-15T00:03:40.673Z,21.34
2019-06-15T00:06:07.528Z,21.27
2019-06-15T00:08:35.038Z,21.19
2019-06-15T00:11:02.483Z,21.15
2019-06-15T00:13:29.162Z,21.12
2019-06-15T00:15:56.769Z,21.09
2019-06-15T00:18:23.585Z,21.05
2019-06-15T00:20:51.214Z,21.02
2019-06-15T00:23:18.313Z,20.97
2019-06-15T00:25:46.059Z,20.96
2019-06-15T00:28:13.474Z,20.94
2019-06-15T00:30:40.225Z,20.68
2019-06-15T00:33:07.864Z,20.92
2019-06-15T00:35:35.628Z,20.88
2019-06-15T00:38:03.293Z,20.87
2019-06-15T00:40:30.915Z,20.86
2019-06-15T00:42:58.632Z,20.84
2019-06-15T00:45:25.984Z,20.82
2019-06-15T00:47:52.780Z,20.79
2019-06-15T00:50:20.576Z,20.77
2019-06-15T00:52:48.242Z,20.75
2019-06-15T00:55:15.273Z,20.72
2019-06-15T00:57:42.599Z,20.69
2019-06-15T01:00:10.526Z,20.68
2019-06-15T01:02:38.033Z,20.65
2019-06-15T01:05:06.652Z,20.63
2019-06-15T01:07:34.592Z,20.61
2019-06-15T01:10:02.311Z,20.61
2019-06-15T01:12:29.029Z,20.62
2019-06-15T01:14:56.865Z,20.64
2019-06-15T01:17:24.766Z,20.66
2019-06-15T01:19:52.245Z,20.66
2019-06-15T01:22:19.774Z,20.67
2019-06-15T01:24:47.281Z,20.67
2019-06-15T01:27:14.793Z,20.69
2019-06-15T01:29:42.225Z,20.66
2019-06-15T01:32:09.171Z,20.67
2019-06-15T01:34:36.066Z,20.66
2019-06-15T01:37:03.275Z,20.66
2019-06-15T01:39:30.006Z,20.65
2019-06-15T01:41:57.756Z,20.60
2019-06-15T01:44:24.478Z,20.57
2019-06-15T01:46:52.085Z,20.56
2019-06-15T01:49:18.714Z,20.53
2019-06-15T01:51:46.113Z,20.54
2019-06-15T01:54:13.524Z,20.53
2019-06-15T01:56:41.218Z,20.51
2019-06-15T01:59:08.034Z,20.48
2019-06-15T02:01:35.635Z,20.47
2019-06-15T02:04:03.017Z,20.44
2019-06-15T02:06:30.776Z,20.42
2019-06-15T02:08:57.380Z,20.37
2019-06-15T02:11:25.123Z,20.37
2019-06-15T02:13:51.837Z,20.36
2019-06-15T02:16:19.537Z,20.34
2019-06-15T02:18:46.836Z,20.34
2019-06-15T02:21:14.272Z,20.33
2019-06-15T02:23:41.127Z,20.29
2019-06-15T02:26:08.755Z,20.26
2019-06-15T02:28:36.572Z,20.24
2019-06-15T02:31:04.298Z,20.21
2019-06-15T02:33:31.725Z,20.18
2019-06-15T02:35:59.114Z,20.17
2019-06-15T02:38:26.706Z,20.15
2019-06-15T02:40:54.227Z,20.15
2019-06-15T02:43:21.797Z,18.82
2019-06-15T02:45:49.564Z,20.11
2019-06-15T02:48:17.270Z,20.10
2019-06-15T02:50:44.865Z,20.07
2019-06-15T02:53:12.770Z,20.03
2019-06-15T02:55:50.192Z,19.98
2019-06-15T02:58:09.946Z,19.94
2019-06-15T03:00:46.801Z,19.93
2019-06-15T03:03:15.744Z,19.93
2019-06-15T03:05:43.155Z,19.90
2019-06-15T03:08:10.697Z,19.82
2019-06-15T03:10:38.056Z,19.77
2019-06-15T03:13:06.239Z,19.73
2019-06-15T03:15:33.781Z,19.71
2019-06-15T03:18:01.736Z,19.69
2019-06-15T03:20:30.109Z,19.68
2019-06-15T03:22:57.232Z,19.67
2019-06-15T03:25:24.706Z,19.65
2019-06-15T03:27:52.378Z,19.64
2019-06-15T03:30:20.779Z,19.67
2019-06-15T03:32:48.489Z,19.68
2019-06-15T03:35:16.617Z,19.73
2019-06-15T03:37:44.023Z,19.75
2019-06-15T03:40:11.828Z,17.86
2019-06-15T03:42:39.463Z,19.83
2019-06-15T03:45:07.008Z,19.83
2019-06-15T03:47:34.558Z,19.86
2019-06-15T03:50:02.594Z,19.90
2019-06-15T03:52:30.010Z,18.58
2019-06-15T03:54:57.433Z,19.94
2019-06-15T03:57:24.807Z,19.97
2019-06-15T03:59:52.850Z,18.70
2019-06-15T04:02:20.399Z,20.00
2019-06-15T04:04:48.065Z,19.98
2019-06-15T04:07:15.515Z,19.99
2019-06-15T04:09:42.946Z,20.00
2019-06-15T04:12:10.756Z,20.02
2019-06-15T04:14:38.073Z,20.06
2019-06-15T04:17:05.345Z,20.11
2019-06-15T04:19:33.354Z,20.18
2019-06-15T04:22:00.903Z,20.24
2019-06-15T04:24:28.555Z,20.27
2019-06-15T04:26:56.331Z,20.29
2019-06-15T04:29:24.476Z,20.25
2019-06-15T04:31:52.090Z,20.28
2019-06-15T04:34:19.800Z,20.30
2019-06-15T04:36:47.519Z,20.33
2019-06-15T04:39:15.580Z,20.36
2019-06-15T04:41:43.433Z,20.35
2019-06-15T04:44:10.865Z,20.38
2019-06-15T04:46:38.753Z,20.42
2019-06-15T04:49:07.013Z,20.46
2019-06-15T04:51:34.679Z,20.47
2019-06-15T04:54:02.474Z,20.46
2019-06-15T04:56:29.795Z,20.43
2019-06-15T04:58:57.805Z,20.37
2019-06-15T05:01:25.335Z,20.36
2019-06-15T05:03:52.949Z,20.38
2019-06-15T05:06:20.731Z,20.38
2019-06-15T05:08:48.325Z,20.37
2019-06-15T05:11:15.958Z,20.35
2019-06-15T05:13:43.650Z,20.33
2019-06-15T05:16:11.071Z,20.33
2019-06-15T05:18:39.041Z,20.38
2019-06-15T05:21:06.971Z,20.41
2019-06-15T05:23:34.592Z,20.39
2019-06-15T05:26:02.181Z,20.39
2019-06-15T05:28:30.174Z,20.39
2019-06-15T05:30:57.691Z,20.43
2019-06-15T05:33:25.219Z,20.49
2019-06-15T05:35:52.993Z,20.58
2019-06-15T05:38:20.630Z,20.67
2019-06-15T05:40:48.670Z,20.76
2019-06-15T05:43:16.344Z,20.81
2019-06-15T05:45:42.984Z,20.87
2019-06-15T05:48:10.753Z,20.95
2019-06-15T05:50:38.523Z,21.03
2019-06-15T05:53:05.450Z,21.10
2019-06-15T05:55:32.288Z,21.16
2019-06-15T05:57:59.866Z,21.18
2019-06-15T06:00:27.289Z,21.20
2019-06-15T06:02:54.819Z,21.22
2019-06-15T06:05:22.259Z,21.25
2019-06-15T06:07:49.749Z,21.26
2019-06-15T06:10:17.879Z,21.25
2019-06-15T06:12:45.122Z,21.30
2019-06-15T06:15:12.861Z,21.37
2019-06-15T06:17:42.285Z,21.17
2019-06-15T06:20:08.861Z,21.49
2019-06-15T06:22:35.841Z,21.58
2019-06-15T06:25:08.133Z,21.67
2019-06-15T06:27:36.814Z,21.73
2019-06-15T06:30:09.175Z,21.81
2019-06-15T06:32:36.838Z,21.92
2019-06-15T06:35:04.553Z,21.99
2019-06-15T06:37:31.752Z,22.09
2019-06-15T06:39:59.731Z,22.18
2019-06-15T06:42:27.081Z,22.27
2019-06-15T06:44:54.710Z,22.35
2019-06-15T06:47:21.937Z,22.47
2019-06-15T06:49:48.983Z,22.58
2019-06-15T06:52:15.765Z,22.75
2019-06-15T06:54:42.801Z,22.90
2019-06-15T06:57:10.053Z,23.07
2019-06-15T06:59:37.734Z,23.25
2019-06-15T07:02:04.876Z,23.40
2019-06-15T07:04:31.469Z,23.58
2019-06-15T07:06:58.640Z,23.79
2019-06-15T07:09:26.179Z,24.03
2019-06-15T07:11:52.932Z,24.28
2019-06-15T07:14:20.058Z,24.62
2019-06-15T07:16:46.694Z,25.15
2019-06-15T07:19:14.076Z,25.72
2019-06-15T07:21:41.204Z,25.16
2019-06-15T07:24:08.263Z,26.72
2019-06-15T07:26:35.726Z,27.05
2019-06-15T07:29:03.504Z,27.22
2019-06-15T07:31:30.942Z,27.41
2019-06-15T07:33:57.797Z,27.58
2019-06-15T07:36:24.445Z,27.75
2019-06-15T07:38:51.490Z,28.06
2019-06-15T07:41:19.011Z,28.30
2019-06-15T07:43:45.639Z,28.68
2019-06-15T07:46:12.803Z,28.65
2019-06-15T07:48:40.191Z,28.44
2019-06-15T07:51:07.209Z,28.24
2019-06-15T07:53:34.257Z,28.22
2019-06-15T07:56:01.112Z,28.25
2019-06-15T07:58:28.771Z,28.38
2019-06-15T08:00:55.973Z,28.37
2019-06-15T08:03:22.708Z,28.45
2019-06-15T08:05:49.801Z,27.41
2019-06-15T08:08:16.972Z,28.53
2019-06-15T08:10:44.322Z,28.47
2019-06-15T08:13:11.653Z,28.59
2019-06-15T08:15:38.846Z,28.88
2019-06-15T08:18:05.983Z,28.12
2019-06-15T08:20:33.363Z,29.28
2019-06-15T08:23:00.904Z,29.38
2019-06-15T08:25:27.744Z,29.44
2019-06-15T08:27:54.735Z,29.72
2019-06-15T08:30:42.023Z,30.13
2019-06-15T08:33:09.187Z,30.39
2019-06-15T08:35:36.410Z,30.45
2019-06-15T08:38:04.386Z,30.35
2019-06-15T08:40:31.212Z,30.45
2019-06-15T08:42:58.055Z,30.68
2019-06-15T08:45:24.823Z,30.91
2019-06-15T08:47:52.388Z,30.77
2019-06-15T08:50:19.507Z,30.79
2019-06-15T08:52:46.379Z,31.05
2019-06-15T08:55:13.113Z,31.15
2019-06-15T08:57:40.781Z,30.78
2019-06-15T09:00:08.368Z,29.47
2019-06-15T09:02:35.747Z,30.14
2019-06-15T09:05:07.116Z,29.60
2019-06-15T09:07:34.369Z,28.23
2019-06-15T09:10:01.115Z,28.92
2019-06-15T09:12:28.430Z,28.71
2019-06-15T09:14:55.129Z,28.72
2019-06-15T09:17:21.895Z,28.95
2019-06-15T09:19:49.126Z,29.08
2019-06-15T09:22:16.074Z,28.86
2019-06-15T09:24:42.961Z,28.59
2019-06-15T09:27:14.661Z,28.33
2019-06-15T09:29:41.568Z,28.10
2019-06-15T09:32:08.202Z,28.18
2019-06-15T09:34:34.996Z,28.24
2019-06-15T09:37:02.077Z,28.19
2019-06-15T09:39:28.908Z,28.21
2019-06-15T09:41:55.949Z,28.13
2019-06-15T09:44:22.884Z,28.16
2019-06-15T09:46:49.942Z,28.36
2019-06-15T09:49:17.149Z,28.38
2019-06-15T09:51:44.156Z,28.38
2019-06-15T09:54:11.805Z,28.45
2019-06-15T09:56:39.674Z,28.37
2019-06-15T09:59:06.924Z,28.46
2019-06-15T10:01:33.891Z,28.96
2019-06-15T10:04:00.598Z,29.19
2019-06-15T10:06:27.952Z,29.08
2019-06-15T10:08:54.828Z,29.06
2019-06-15T10:11:21.758Z,29.40
2019-06-15T10:13:53.596Z,29.80
2019-06-15T10:16:21.263Z,29.99
2019-06-15T10:18:48.107Z,30.21
2019-06-15T10:21:15.327Z,30.42
2019-06-15T10:23:42.418Z,30.72
2019-06-15T10:26:09.277Z,30.95
2019-06-15T10:28:36.019Z,31.15
2019-06-15T10:31:04.592Z,31.14
2019-06-15T10:33:32.054Z,31.34
2019-06-15T10:35:59.600Z,31.49
2019-06-15T10:38:27.116Z,31.66
2019-06-15T10:40:54.224Z,31.41
2019-06-15T10:43:20.951Z,29.39
2019-06-15T10:45:48.621Z,31.12
2019-06-15T10:48:15.662Z,31.37
2019-06-15T10:50:42.299Z,31.37
2019-06-15T10:53:09.497Z,31.12
2019-06-15T10:55:36.425Z,31.29
2019-06-15T10:58:04.047Z,31.52
2019-06-15T11:00:31.220Z,31.65
2019-06-15T11:02:57.964Z,31.65
2019-06-15T11:05:24.882Z,31.47
2019-06-15T11:07:51.937Z,31.60
2019-06-15T11:10:40.115Z,31.86
2019-06-15T11:13:07.726Z,32.14
2019-06-15T11:15:34.971Z,32.16
2019-06-15T11:18:01.743Z,32.33
2019-06-15T11:20:28.495Z,32.64
2019-06-15T11:22:55.236Z,32.80
2019-06-15T11:25:21.844Z,32.85
2019-06-15T11:27:49.523Z,32.82
2019-06-15T11:30:16.649Z,32.45
2019-06-15T11:32:43.322Z,31.72
2019-06-15T11:35:10.243Z,31.03
2019-06-15T11:37:37.402Z,30.37
2019-06-15T11:40:06.015Z,30.00
2019-06-15T11:42:32.835Z,29.80
2019-06-15T11:44:59.842Z,30.08
2019-06-15T11:47:26.569Z,30.61
2019-06-15T11:49:55.103Z,30.97
2019-06-15T11:52:22.091Z,31.07
2019-06-15T11:54:49.382Z,30.04
2019-06-15T11:57:16.103Z,30.61
2019-06-15T11:59:42.989Z,30.67
2019-06-15T12:02:10.041Z,30.96
2019-06-15T12:04:37.873Z,31.14
2019-06-15T12:07:05.001Z,31.48
2019-06-15T12:09:32.802Z,32.04
2019-06-15T12:11:59.776Z,31.50
2019-06-15T12:14:26.985Z,32.38
2019-06-15T12:16:53.606Z,31.77
2019-06-15T12:19:20.438Z,31.13
2019-06-15T12:21:47.730Z,30.78
2019-06-15T12:24:14.389Z,31.18
2019-06-15T12:26:41.429Z,31.42
2019-06-15T12:29:08.880Z,31.45
2019-06-15T12:31:35.505Z,31.02
2019-06-15T12:34:02.468Z,30.54
2019-06-15T12:36:29.602Z,30.47
2019-06-15T12:38:56.462Z,30.68
2019-06-15T12:41:23.414Z,30.80
2019-06-15T12:43:50.799Z,30.78
2019-06-15T12:46:18.065Z,30.72
2019-06-15T12:48:44.885Z,30.17
2019-06-15T12:51:12.021Z,29.64
2019-06-15T12:53:39.918Z,29.40
2019-06-15T12:56:06.774Z,29.63
2019-06-15T12:58:33.970Z,30.18
2019-06-15T13:01:03.414Z,30.63
2019-06-15T13:03:29.788Z,31.13
2019-06-15T13:05:56.520Z,31.49
2019-06-15T13:08:23.333Z,31.78
2019-06-15T13:10:51.163Z,31.83
2019-06-15T13:13:17.975Z,31.81
2019-06-15T13:15:44.886Z,31.56
2019-06-15T13:18:12.694Z,31.13
2019-06-15T13:20:39.431Z,30.86
2019-06-15T13:23:06.292Z,30.80
2019-06-15T13:25:34.796Z,30.73
2019-06-15T13:28:02.054Z,30.76
2019-06-15T13:30:29.649Z,30.71
2019-06-15T13:32:56.612Z,30.49
2019-06-15T13:35:23.431Z,30.09
2019-06-15T13:37:50.185Z,29.79
2019-06-15T13:40:17.601Z,29.56
2019-06-15T13:42:44.402Z,29.78
2019-06-15T13:45:12.799Z,29.12
2019-06-15T13:47:40.161Z,30.22
2019-06-15T13:50:08.223Z,29.89
2019-06-15T13:52:35.143Z,29.55
2019-06-15T13:55:02.940Z,29.38
2019-06-15T13:57:29.904Z,29.21
2019-06-15T13:59:57.151Z,29.39
2019-06-15T14:02:24.267Z,29.60
2019-06-15T14:04:50.910Z,29.81
2019-06-15T14:07:18.460Z,30.28
2019-06-15T14:09:45.302Z,30.66
2019-06-15T14:12:12.057Z,30.69
2019-06-15T14:14:39.135Z,30.68
2019-06-15T14:17:05.854Z,30.53
2019-06-15T14:19:33.398Z,30.29
2019-06-15T14:22:01.906Z,30.11
2019-06-15T14:24:28.621Z,29.86
2019-06-15T14:26:55.432Z,29.77
2019-06-15T14:29:22.789Z,29.71
2019-06-15T14:31:50.648Z,29.80
2019-06-15T14:34:17.933Z,29.87
2019-06-15T14:36:44.975Z,30.09
2019-06-15T14:39:11.792Z,30.28
2019-06-15T14:41:38.748Z,30.43
2019-06-15T14:44:06.281Z,29.39
2019-06-15T14:46:33.392Z,30.21
2019-06-15T14:49:00.426Z,30.15
2019-06-15T14:51:27.369Z,28.93
2019-06-15T14:53:56.281Z,29.71
2019-06-15T14:56:22.956Z,29.74
2019-06-15T14:58:49.852Z,29.96
2019-06-15T15:01:17.154Z,30.13
2019-06-15T15:03:47.111Z,30.42
2019-06-15T15:06:12.502Z,30.60
2019-06-15T15:08:39.340Z,30.55
2019-06-15T15:11:06.773Z,30.39
2019-06-15T15:13:36.629Z,30.40
2019-06-15T15:16:03.219Z,30.42
2019-06-15T15:18:30.072Z,30.62
2019-06-15T15:20:57.148Z,30.78
2019-06-15T15:23:24.014Z,30.80
2019-06-15T15:25:51.016Z,30.64
2019-06-15T15:28:18.323Z,30.59
2019-06-15T15:30:45.140Z,30.45
2019-06-15T15:33:12.058Z,30.41
2019-06-15T15:35:38.708Z,30.36
2019-06-15T15:38:06.229Z,30.36
2019-06-15T15:40:36.321Z,30.49
2019-06-15T15:43:02.341Z,30.52
2019-06-15T15:45:29.092Z,29.42
2019-06-15T15:47:56.960Z,29.97
2019-06-15T15:50:26.281Z,29.89
2019-06-15T15:52:53.351Z,29.93
2019-06-15T15:55:20.988Z,30.21
2019-06-15T15:57:48.113Z,30.39
2019-06-15T16:00:26.755Z,30.60
2019-06-15T16:02:53.115Z,30.35
2019-06-15T16:05:20.913Z,30.19
2019-06-15T16:07:47.746Z,30.08
2019-06-15T16:10:16.056Z,30.15
2019-06-15T16:12:42.939Z,30.04
2019-06-15T16:15:10.541Z,29.68
2019-06-15T16:17:37.521Z,29.53
2019-06-15T16:20:06.654Z,29.26
2019-06-15T16:22:33.373Z,28.98
2019-06-15T16:25:00.487Z,28.86
2019-06-15T16:27:27.248Z,28.76
2019-06-15T16:29:56.492Z,28.75
2019-06-15T16:32:26.232Z,28.67
2019-06-15T16:34:52.627Z,28.45
2019-06-15T16:37:19.475Z,28.48
2019-06-15T16:39:46.885Z,28.33
2019-06-15T16:42:13.690Z,28.36
2019-06-15T16:44:41.406Z,28.46
2019-06-15T16:47:08.685Z,28.43
2019-06-15T16:49:36.302Z,28.44
2019-06-15T16:52:06.027Z,28.53
2019-06-15T16:54:32.241Z,28.53
2019-06-15T16:56:59.002Z,28.42
2019-06-15T16:59:26.692Z,28.44
2019-06-15T17:01:56.006Z,27.40
2019-06-15T17:04:22.954Z,28.38
2019-06-15T17:06:49.830Z,28.39
2019-06-15T17:09:17.628Z,28.20
2019-06-15T17:11:47.010Z,28.09
2019-06-15T17:14:13.022Z,28.16
2019-06-15T17:16:39.837Z,28.15
2019-06-15T17:19:07.342Z,28.26
2019-06-15T17:21:34.137Z,28.29
2019-06-15T17:24:01.581Z,28.15
2019-06-15T17:26:28.333Z,28.12
2019-06-15T17:28:56.792Z,28.15
2019-06-15T17:31:23.452Z,27.97
2019-06-15T17:33:50.385Z,27.84
2019-06-15T17:36:18.153Z,27.77
2019-06-15T17:38:46.274Z,27.74
2019-06-15T17:41:13.869Z,27.69
2019-06-15T17:43:41.509Z,27.63
2019-06-15T17:46:08.344Z,27.51
2019-06-15T17:48:37.057Z,26.06
2019-06-15T17:51:06.429Z,27.07
2019-06-15T17:53:33.775Z,26.88
2019-06-15T17:56:03.449Z,26.83
2019-06-15T17:58:30.281Z,25.72
2019-06-15T18:00:57.674Z,27.00
2019-06-15T18:03:26.064Z,27.10
2019-06-15T18:05:53.073Z,27.19
2019-06-15T18:08:19.913Z,27.17
2019-06-15T18:10:47.747Z,27.09
2019-06-15T18:13:16.791Z,27.02
2019-06-15T18:15:44.171Z,26.97
2019-06-15T18:18:11.125Z,26.92
2019-06-15T18:20:37.842Z,26.81
2019-06-15T18:23:06.018Z,26.77
2019-06-15T18:25:33.132Z,26.70
2019-06-15T18:28:00.034Z,26.52
2019-06-15T18:30:26.948Z,26.47
2019-06-15T18:32:56.232Z,26.36
2019-06-15T18:35:23.076Z,26.29
2019-06-15T18:37:50.772Z,26.18
2019-06-15T18:40:18.315Z,26.07
2019-06-15T18:42:46.335Z,25.94
2019-06-15T18:45:15.869Z,25.82
2019-06-15T18:47:42.165Z,25.60
2019-06-15T18:50:10.146Z,25.39
2019-06-15T18:52:37.887Z,25.19
2019-06-15T18:55:06.049Z,24.99
2019-06-15T18:57:32.940Z,24.85
2019-06-15T18:59:59.986Z,24.74
2019-06-15T19:02:26.803Z,24.64
2019-06-15T19:04:56.490Z,24.57
2019-06-15T19:07:22.416Z,23.26
2019-06-15T19:09:49.438Z,24.39
2019-06-15T19:12:18.543Z,24.29
2019-06-15T19:14:46.921Z,24.18
2019-06-15T19:17:16.378Z,24.10
2019-06-15T19:19:42.502Z,24.04
2019-06-15T19:22:09.523Z,23.97
2019-06-15T19:24:37.180Z,23.90
2019-06-15T19:27:04.130Z,22.59
2019-06-15T19:29:31.031Z,23.72
2019-06-15T19:31:57.836Z,23.63
2019-06-15T19:34:41.060Z,23.54
2019-06-15T19:36:53.578Z,23.42
2019-06-15T19:39:21.250Z,23.32
2019-06-15T19:41:47.992Z,23.23
2019-06-15T19:44:16.411Z,23.15
2019-06-15T19:46:43.611Z,23.07
2019-06-15T19:49:11.026Z,23.00
2019-06-15T19:51:38.651Z,22.92
2019-06-15T19:54:07.688Z,21.61
2019-06-15T19:56:36.989Z,22.74
2019-06-15T19:59:03.534Z,22.63
2019-06-15T20:01:30.613Z,22.57
2019-06-15T20:03:57.611Z,22.50
2019-06-15T20:06:26.040Z,22.44
2019-06-15T20:08:53.299Z,22.39
2019-06-15T20:11:20.002Z,22.34
2019-06-15T20:13:47.457Z,22.28
2019-06-15T20:16:16.572Z,22.24
2019-06-15T20:18:43.496Z,22.19
2019-06-15T20:21:10.342Z,22.12
2019-06-15T20:23:37.862Z,22.05
2019-06-15T20:26:06.635Z,21.96
2019-06-15T20:28:33.730Z,19.61
2019-06-15T20:31:00.629Z,21.82
2019-06-15T20:33:27.466Z,21.73
2019-06-15T20:35:57.219Z,21.66
2019-06-15T20:38:26.714Z,21.58
2019-06-15T20:40:53.135Z,21.48
2019-06-15T20:43:19.989Z,21.40
2019-06-15T20:45:47.682Z,21.34
2019-06-15T20:48:14.540Z,20.02
2019-06-15T20:50:42.232Z,21.20
2019-06-15T20:53:09.316Z,21.15
2019-06-15T20:55:37.292Z,21.08
2019-06-15T20:58:06.514Z,21.00
2019-06-15T21:00:36.563Z,20.95
2019-06-15T21:03:03.090Z,19.61
2019-06-15T21:05:37.698Z,20.89
2019-06-15T21:07:58.616Z,20.85
2019-06-15T21:10:26.358Z,20.80
2019-06-15T21:12:53.717Z,20.77
2019-06-15T21:15:24.059Z,20.74
2019-06-15T21:17:53.304Z,20.69
2019-06-15T21:20:21.179Z,20.65
2019-06-15T21:22:50.167Z,20.62
2019-06-15T21:25:17.484Z,20.55
2019-06-15T21:27:47.433Z,20.50
2019-06-15T21:30:16.549Z,20.41
2019-06-15T21:32:47.383Z,20.35
2019-06-15T21:35:15.658Z,20.27
2019-06-15T21:37:46.297Z,20.17
2019-06-15T21:40:15.383Z,20.12
2019-06-15T21:42:43.416Z,20.08
2019-06-15T21:45:12.184Z,20.02
2019-06-15T21:47:39.664Z,19.99
2019-06-15T21:50:07.710Z,19.96
2019-06-15T21:52:36.410Z,19.94
2019-06-15T21:55:08.330Z,19.89
2019-06-15T21:57:36.541Z,19.82
2019-06-15T22:00:12.812Z,19.76
2019-06-15T22:02:41.122Z,19.72
2019-06-15T22:05:08.953Z,19.66
2019-06-15T22:07:36.851Z,19.59
2019-06-15T22:10:08.593Z,19.54
2019-06-15T22:12:36.600Z,19.51
2019-06-15T22:15:06.934Z,19.46
2019-06-15T22:17:37.080Z,19.41
2019-06-15T22:20:07.086Z,19.34
2019-06-15T22:22:36.445Z,19.30
2019-06-15T22:25:06.902Z,19.23
2019-06-15T22:27:36.237Z,19.18
2019-06-15T22:30:07.557Z,19.13
2019-06-15T22:32:33.743Z,19.04
2019-06-15T22:35:01.958Z,18.99
2019-06-15T22:37:29.385Z,18.93
2019-06-15T22:39:57.237Z,18.89
2019-06-15T22:42:25.535Z,18.85
2019-06-15T22:44:53.422Z,18.82
2019-06-15T22:47:21.094Z,18.77
2019-06-15T22:49:47.927Z,18.70
2019-06-15T22:52:17.150Z,18.64
2019-06-15T22:54:46.381Z,18.57
2019-06-15T22:57:13.550Z,18.51
2019-06-15T22:59:40.553Z,18.47
2019-06-15T23:02:08.486Z,18.44
2019-06-15T23:04:37.194Z,18.41
2019-06-15T23:07:06.907Z,18.38
2019-06-15T23:09:36.087Z,18.33
2019-06-15T23:12:04.081Z,18.26
2019-06-15T23:14:31.639Z,18.20
2019-06-15T23:16:59.373Z,18.14
2019-06-15T23:19:26.317Z,18.09
2019-06-15T23:21:53.502Z,18.04
2019-06-15T23:24:21.198Z,17.98
2019-06-15T23:26:48.775Z,17.93
2019-06-15T23:29:16.860Z,17.88
2019-06-15T23:31:46.057Z,17.83
2019-06-15T23:34:13.545Z,17.82
2019-06-15T23:36:54.126Z,17.80
2019-06-15T23:39:12.617Z,17.78
2019-06-15T23:41:40.275Z,17.74
2019-06-15T23:44:08.328Z,17.67
2019-06-15T23:46:36.254Z,17.65
2019-06-15T23:49:04.030Z,17.62
2019-06-15T23:51:32.266Z,17.60
2019-06-15T23:54:00.024Z,17.59
2019-06-15T23:56:27.992Z,17.58
2019-06-15T23:58:56.159Z,17.56
